Time;durP1;ratioP1;P1;durP2;ratioP2;P2;SDS_P1;SDS_P2;PMS_P1;PMS_P2;Temp;Humidity;BMP_temperature;BMP_pressure;BME280_temperature;BME280_humidity;BME280_pressure;Samples;Min_cycle;Max_cycle;Signal;HPM_P1;HPM_P2
2020/12/18 00:00:26;;;;;;;2.85;2.40;;;12.80;99.90;;;;;;5094182;28;20632;-77
2020/12/18 00:02:52;;;;;;;4.97;2.58;;;12.90;99.90;;;;;;5093846;28;20554;-77
2020/12/18 00:05:18;;;;;;;4.95;2.72;;;12.90;99.90;;;;;;5093736;28;20779;-77
2020/12/18 00:07:45;;;;;;;4.85;2.30;;;12.90;99.90;;;;;;5094052;28;20667;-77
2020/12/18 00:10:11;;;;;;;2.85;2.63;;;13.00;99.90;;;;;;5093957;28;20198;-77
2020/12/18 00:12:37;;;;;;;4.40;2.75;;;13.00;99.90;;;;;;5093729;28;20194;-77
2020/12/18 00:15:05;;;;;;;5.47;3.08;;;13.00;99.90;;;;;;5093571;28;20219;-78
2020/12/18 00:17:32;;;;;;;4.10;2.30;;;13.00;99.90;;;;;;5093616;28;20201;-77
2020/12/18 00:19:58;;;;;;;3.95;2.20;;;13.00;99.90;;;;;;5093712;28;20198;-77
2020/12/18 00:22:25;;;;;;;6.43;2.55;;;13.00;99.90;;;;;;5093556;28;20201;-77
2020/12/18 00:24:53;;;;;;;3.45;2.95;;;13.00;99.90;;;;;;5093163;28;20225;-77
2020/12/18 00:27:19;;;;;;;3.25;2.25;;;12.90;99.90;;;;;;5093595;28;20200;-77
2020/12/18 00:29:45;;;;;;;5.53;2.30;;;13.00;99.90;;;;;;5093614;28;20254;-77
2020/12/18 00:32:12;;;;;;;3.50;2.40;;;12.90;99.90;;;;;;5093605;28;20644;-76
2020/12/18 00:34:38;;;;;;;3.55;2.60;;;12.90;99.90;;;;;;5093401;28;20201;-77
2020/12/18 00:37:05;;;;;;;3.25;2.08;;;12.90;99.90;;;;;;5093441;28;20583;-77
2020/12/18 00:39:31;;;;;;;3.38;3.00;;;13.00;99.90;;;;;;5093447;28;20197;-78
2020/12/18 00:41:57;;;;;;;4.85;2.67;;;13.00;99.90;;;;;;5093680;28;20201;-76
2020/12/18 00:44:23;;;;;;;2.40;2.17;;;12.90;99.90;;;;;;5093122;28;20221;-77
2020/12/18 00:46:50;;;;;;;7.45;2.33;;;12.90;99.90;;;;;;5093145;28;20236;-77
2020/12/18 00:49:17;;;;;;;9.43;2.75;;;12.80;99.90;;;;;;5093171;28;20197;-77
2020/12/18 00:51:43;;;;;;;2.50;1.83;;;12.90;99.90;;;;;;5093301;28;20193;-77
2020/12/18 00:54:09;;;;;;;2.63;2.40;;;12.90;99.90;;;;;;5093176;28;20207;-77
2020/12/18 00:56:36;;;;;;;3.67;1.95;;;12.90;99.90;;;;;;5092907;28;20704;-77
2020/12/18 00:59:02;;;;;;;6.03;2.25;;;12.90;99.90;;;;;;5093235;28;20657;-77
2020/12/18 01:01:28;;;;;;;2.60;2.10;;;12.80;99.90;;;;;;5093175;28;20193;-77
2020/12/18 01:03:54;;;;;;;4.53;2.13;;;12.80;99.90;;;;;;5092920;28;20201;-77
2020/12/18 01:06:22;;;;;;;3.65;2.65;;;12.80;99.90;;;;;;5093067;28;20644;-77
2020/12/18 01:08:48;;;;;;;2.60;2.20;;;12.80;99.90;;;;;;5093178;28;20201;-77
2020/12/18 01:11:14;;;;;;;7.55;2.47;;;12.80;99.90;;;;;;5093216;28;20197;-77
2020/12/18 01:13:40;;;;;;;7.80;2.15;;;12.80;99.90;;;;;;5093026;28;20287;-77
2020/12/18 01:16:11;;;;;;;2.05;1.85;;;12.70;99.90;;;;;;5092981;28;20217;-76
2020/12/18 01:18:37;;;;;;;3.97;2.00;;;12.70;99.90;;;;;;5093031;28;20200;-77
2020/12/18 01:21:03;;;;;;;7.30;2.65;;;12.80;99.90;;;;;;5093047;28;20258;-77
2020/12/18 01:23:30;;;;;;;2.58;2.03;;;12.80;99.90;;;;;;5092977;28;20201;-77
2020/12/18 01:25:57;;;;;;;4.57;2.33;;;12.80;99.90;;;;;;5092785;28;20221;-77
2020/12/18 01:28:23;;;;;;;5.50;3.47;;;12.80;99.90;;;;;;5092966;28;20242;-77
2020/12/18 01:30:49;;;;;;;5.32;1.95;;;12.70;99.90;;;;;;5092780;28;20193;-77
2020/12/18 01:33:16;;;;;;;3.38;2.50;;;12.70;99.90;;;;;;5092879;28;20201;-77
2020/12/18 01:35:42;;;;;;;4.80;2.40;;;12.60;99.90;;;;;;5093844;28;20197;-77
2020/12/18 01:38:08;;;;;;;6.25;2.35;;;12.70;99.90;;;;;;5096734;28;20190;-77
2020/12/18 01:40:35;;;;;;;2.90;2.60;;;12.70;99.90;;;;;;5096840;28;20197;-77
2020/12/18 01:43:03;;;;;;;7.80;3.05;;;12.80;99.90;;;;;;5096630;28;20643;-77
2020/12/18 01:45:29;;;;;;;4.85;2.13;;;12.80;99.90;;;;;;5096425;28;20250;-77
2020/12/18 01:47:56;;;;;;;5.03;2.13;;;12.70;99.90;;;;;;5096558;28;20208;-77
2020/12/18 01:50:22;;;;;;;2.97;1.90;;;12.60;99.90;;;;;;5096582;28;20243;-77
2020/12/18 01:52:49;;;;;;;6.13;2.25;;;12.60;99.90;;;;;;5096445;28;20202;-76
2020/12/18 01:55:16;;;;;;;3.70;2.20;;;12.70;99.90;;;;;;5096441;28;20189;-76
2020/12/18 01:57:44;;;;;;;2.88;2.15;;;12.70;99.90;;;;;;5096237;28;20232;-77
2020/12/18 02:00:11;;;;;;;3.70;2.53;;;12.60;99.90;;;;;;5096331;28;20209;-77
2020/12/18 02:02:37;;;;;;;7.72;2.22;;;12.70;99.90;;;;;;5096187;28;20189;-77
2020/12/18 02:05:04;;;;;;;5.13;2.15;;;12.70;99.90;;;;;;5096273;28;20225;-78
2020/12/18 02:07:30;;;;;;;7.93;2.30;;;12.70;99.90;;;;;;5096262;28;20190;-77
2020/12/18 02:09:57;;;;;;;2.80;2.03;;;12.70;99.90;;;;;;5096398;28;20582;-77
2020/12/18 02:12:24;;;;;;;2.03;1.83;;;12.60;99.90;;;;;;5096173;28;20198;-77
2020/12/18 02:14:52;;;;;;;3.00;2.00;;;12.70;99.90;;;;;;5095997;28;20231;-77
2020/12/18 02:17:18;;;;;;;6.28;2.40;;;12.70;99.90;;;;;;5096020;28;20194;-77
2020/12/18 02:19:51;;;;;;;3.10;2.25;;;12.80;99.90;;;;;;5095820;28;20196;-77
2020/12/18 02:22:19;;;;;;;3.90;1.83;;;12.80;99.90;;;;;;5095820;28;20251;-77
2020/12/18 02:24:50;;;;;;;2.15;1.70;;;12.70;99.90;;;;;;5095746;28;20225;-77
2020/12/18 02:27:18;;;;;;;1.50;1.40;;;12.70;99.90;;;;;;5095966;28;20197;-77
2020/12/18 02:29:44;;;;;;;2.78;1.88;;;12.60;99.90;;;;;;5095781;28;20341;-78
2020/12/18 02:32:10;;;;;;;6.35;1.85;;;12.60;99.90;;;;;;5095747;28;20198;-77
2020/12/18 02:34:37;;;;;;;2.38;1.85;;;12.50;99.90;;;;;;5095682;28;20213;-77
2020/12/18 02:37:03;;;;;;;6.20;2.42;;;12.60;99.90;;;;;;5095644;28;20193;-77
2020/12/18 02:39:29;;;;;;;5.28;2.50;;;12.60;99.90;;;;;;5095623;28;20543;-77
2020/12/18 02:41:56;;;;;;;2.65;1.75;;;12.60;99.90;;;;;;5095406;28;20194;-77
2020/12/18 02:44:23;;;;;;;3.88;2.35;;;12.60;99.90;;;;;;5095379;28;20233;-77
2020/12/18 02:46:50;;;;;;;4.25;2.13;;;12.60;99.90;;;;;;5095032;28;20220;-77
2020/12/18 02:49:16;;;;;;;4.45;2.55;;;12.60;99.90;;;;;;5095507;28;20280;-80
2020/12/18 02:51:43;;;;;;;3.17;1.98;;;12.60;99.90;;;;;;5095435;28;20206;-77
2020/12/18 02:54:10;;;;;;;4.70;2.08;;;12.50;99.90;;;;;;5095158;28;20190;-77
2020/12/18 02:56:37;;;;;;;4.85;1.73;;;12.60;99.90;;;;;;5095298;28;20225;-77
2020/12/18 02:59:03;;;;;;;3.97;2.20;;;12.60;99.90;;;;;;5095229;28;20197;-77
2020/12/18 03:01:30;;;;;;;2.00;1.50;;;12.50;99.90;;;;;;5095284;28;20189;-78
2020/12/18 03:03:56;;;;;;;2.85;1.92;;;12.60;99.90;;;;;;5094938;28;20196;-77
2020/12/18 03:06:22;;;;;;;4.75;1.60;;;12.60;99.90;;;;;;5095059;28;20212;-77
2020/12/18 03:08:49;;;;;;;3.58;1.65;;;12.50;99.90;;;;;;5095061;28;20201;-77
2020/12/18 03:11:15;;;;;;;3.70;1.70;;;12.50;99.90;;;;;;5094962;28;20189;-77
2020/12/18 03:13:43;;;;;;;4.97;2.47;;;12.50;99.90;;;;;;5094790;28;20656;-77
2020/12/18 03:16:10;;;;;;;3.80;1.67;;;12.60;99.90;;;;;;5094765;28;20213;-77
2020/12/18 03:18:37;;;;;;;5.93;2.45;;;12.60;99.90;;;;;;5094819;28;20193;-77
2020/12/18 03:21:03;;;;;;;3.13;2.17;;;12.50;99.90;;;;;;5094757;28;20200;-77
2020/12/18 03:23:29;;;;;;;5.95;2.17;;;12.60;99.90;;;;;;5094727;28;20197;-77
2020/12/18 03:25:56;;;;;;;1.75;1.55;;;12.60;99.90;;;;;;5094806;28;20217;-77
2020/12/18 03:28:22;;;;;;;3.60;1.80;;;12.60;99.90;;;;;;5094804;28;20201;-76
2020/12/18 03:30:49;;;;;;;3.00;1.50;;;12.60;99.90;;;;;;5094607;28;20200;-77
2020/12/18 03:33:15;;;;;;;4.57;2.13;;;12.60;99.90;;;;;;5094508;28;20251;-77
2020/12/18 03:35:43;;;;;;;3.05;1.88;;;12.70;99.90;;;;;;5094424;28;20243;-77
2020/12/18 03:38:10;;;;;;;3.65;1.90;;;12.70;99.90;;;;;;5094425;28;20211;-77
2020/12/18 03:40:36;;;;;;;1.70;1.42;;;12.70;99.90;;;;;;5094416;28;20193;-77
2020/12/18 03:43:02;;;;;;;2.40;1.40;;;12.70;99.90;;;;;;5094395;28;20194;-77
2020/12/18 03:45:29;;;;;;;3.40;1.85;;;12.60;99.90;;;;;;5094051;28;20221;-77
2020/12/18 03:47:55;;;;;;;4.63;1.88;;;12.60;99.90;;;;;;5094252;28;20223;-77
2020/12/18 03:50:21;;;;;;;2.50;1.50;;;12.50;99.90;;;;;;5094330;28;20197;-77
2020/12/18 03:52:48;;;;;;;3.53;2.15;;;12.60;99.90;;;;;;5094105;28;20265;-77
2020/12/18 03:55:15;;;;;;;1.60;1.20;;;12.60;99.90;;;;;;5094065;28;20190;-77
2020/12/18 03:57:41;;;;;;;3.65;2.00;;;12.50;99.90;;;;;;5093577;28;20229;-77
2020/12/18 04:00:08;;;;;;;3.38;1.40;;;12.50;99.90;;;;;;5093776;28;20205;-77
2020/12/18 04:02:34;;;;;;;2.72;1.65;;;12.50;99.90;;;;;;5093915;28;20666;-77
2020/12/18 04:05:01;;;;;;;4.50;1.90;;;12.50;99.90;;;;;;5093944;28;20268;-76
2020/12/18 04:07:27;;;;;;;4.40;1.77;;;12.50;99.90;;;;;;5093961;28;20200;-77
2020/12/18 04:09:54;;;;;;;5.75;1.90;;;12.50;99.90;;;;;;5094080;28;20205;-77
2020/12/18 04:12:20;;;;;;;3.15;1.60;;;12.50;99.90;;;;;;5093916;28;20208;-77
2020/12/18 04:14:46;;;;;;;5.28;1.45;;;12.50;99.90;;;;;;5093686;28;20226;-77
2020/12/18 04:17:13;;;;;;;2.20;2.00;;;12.50;99.90;;;;;;5093817;28;20682;-77
2020/12/18 04:19:39;;;;;;;2.97;1.55;;;12.50;99.90;;;;;;5093715;28;20197;-77
2020/12/18 04:22:05;;;;;;;7.10;1.90;;;12.50;99.90;;;;;;5093764;28;20212;-77
2020/12/18 04:24:31;;;;;;;2.72;1.60;;;12.40;99.90;;;;;;5093565;28;20229;-77
2020/12/18 04:26:59;;;;;;;5.60;1.80;;;12.40;99.90;;;;;;5093682;28;20193;-77
2020/12/18 04:29:25;;;;;;;4.15;1.65;;;12.40;99.90;;;;;;5093865;28;20632;-77
2020/12/18 04:31:51;;;;;;;2.85;2.63;;;12.40;99.90;;;;;;5093625;28;20216;-78
2020/12/18 04:34:17;;;;;;;4.32;2.00;;;12.40;99.90;;;;;;5093468;28;20284;-77
2020/12/18 04:36:44;;;;;;;4.35;2.60;;;12.50;99.90;;;;;;5093374;28;20201;-78
2020/12/18 04:39:10;;;;;;;4.00;1.60;;;12.50;99.90;;;;;;5093551;28;20648;-77
2020/12/18 04:41:38;;;;;;;2.97;1.60;;;12.50;99.90;;;;;;5093361;28;20201;-77
2020/12/18 04:44:05;;;;;;;5.93;2.10;;;12.40;99.90;;;;;;5093268;28;20229;-77
2020/12/18 04:46:35;;;;;;;2.78;1.77;;;12.40;99.90;;;;;;5093165;28;20222;-78
2020/12/18 04:49:02;;;;;;;3.15;1.70;;;12.30;99.90;;;;;;5093376;28;20548;-77
2020/12/18 04:51:28;;;;;;;2.97;1.90;;;12.30;99.90;;;;;;5093204;28;20641;-77
2020/12/18 04:53:56;;;;;;;4.32;1.52;;;12.30;99.90;;;;;;5093097;28;20205;-77
2020/12/18 04:56:24;;;;;;;3.35;1.55;;;12.30;99.90;;;;;;5093098;28;20225;-77
2020/12/18 04:58:51;;;;;;;3.88;2.00;;;12.20;99.90;;;;;;5093251;28;20196;-77
2020/12/18 05:01:21;;;;;;;4.18;2.00;;;12.30;99.90;;;;;;5093108;28;20785;-77
2020/12/18 05:03:47;;;;;;;5.60;2.05;;;12.20;99.90;;;;;;5092974;28;20194;-77
2020/12/18 05:06:14;;;;;;;2.70;1.85;;;12.20;99.90;;;;;;5092984;28;20225;-77
2020/12/18 05:08:42;;;;;;;3.80;2.25;;;12.30;99.90;;;;;;5093333;28;20197;-77
2020/12/18 05:11:20;;;;;;;3.63;2.15;;;12.30;99.90;;;;;;5097040;28;20198;-76
2020/12/18 05:13:47;;;;;;;3.88;2.58;;;12.20;99.90;;;;;;5097201;28;20201;-77
2020/12/18 05:16:16;;;;;;;2.10;1.60;;;12.20;99.90;;;;;;5097085;28;20737;-77
2020/12/18 05:18:43;;;;;;;4.65;2.15;;;12.20;99.90;;;;;;5097168;28;20581;-77
2020/12/18 05:21:10;;;;;;;6.47;1.88;;;12.20;99.90;;;;;;5097071;28;20250;-77
2020/12/18 05:23:37;;;;;;;3.70;1.75;;;12.30;99.90;;;;;;5097029;28;20251;-77
2020/12/18 05:26:05;;;;;;;8.10;2.28;;;12.30;99.90;;;;;;5097059;28;20221;-77
2020/12/18 05:28:38;;;;;;;3.45;2.00;;;12.30;99.90;;;;;;5096868;28;20200;-77
2020/12/18 05:31:09;;;;;;;3.35;1.80;;;12.30;99.90;;;;;;5097017;28;20203;-77
2020/12/18 05:33:35;;;;;;;5.47;1.90;;;12.30;99.90;;;;;;5096691;28;20194;-77
2020/12/18 05:36:03;;;;;;;2.90;1.92;;;12.30;99.90;;;;;;5088500;28;20196;-78
2020/12/18 05:38:29;;;;;;;4.93;2.33;;;12.30;99.90;;;;;;5080679;28;20195;-79
2020/12/18 05:40:59;;;;;;;3.85;1.80;;;12.30;99.90;;;;;;5076332;28;20205;-77
2020/12/18 05:43:33;;;;;;;7.97;4.25;;;12.30;99.90;;;;;;5076499;28;20198;-77
2020/12/18 05:45:59;;;;;;;7.18;4.68;;;12.30;99.90;;;;;;5076105;28;20359;-77
2020/12/18 05:48:26;;;;;;;5.07;3.50;;;12.20;99.90;;;;;;5076358;28;20201;-77
2020/12/18 05:50:52;;;;;;;3.45;3.15;;;12.30;99.90;;;;;;5076449;28;20675;-77
2020/12/18 05:53:20;;;;;;;2.90;1.90;;;12.30;99.90;;;;;;5076191;28;20204;-77
2020/12/18 05:55:46;;;;;;;5.68;2.40;;;12.30;99.90;;;;;;5075903;28;20198;-77
2020/12/18 05:58:13;;;;;;;3.72;1.95;;;12.20;99.90;;;;;;5076045;28;20597;-77
2020/12/18 06:00:41;;;;;;;7.63;2.20;;;12.20;99.90;;;;;;5080704;28;20217;-78
2020/12/18 06:03:10;;;;;;;3.85;1.73;;;12.20;99.90;;;;;;5075872;28;20191;-78
2020/12/18 06:05:38;;;;;;;2.42;1.98;;;12.20;99.90;;;;;;5075931;28;20226;-78
2020/12/18 06:08:15;;;;;;;5.93;1.90;;;12.20;99.90;;;;;;5075930;28;20203;-77
2020/12/18 06:10:42;;;;;;;5.82;2.00;;;12.20;99.90;;;;;;5076163;28;20201;-77
2020/12/18 06:13:09;;;;;;;3.72;1.73;;;12.20;99.90;;;;;;5075768;28;20186;-77
2020/12/18 06:15:35;;;;;;;6.60;1.90;;;12.20;99.90;;;;;;5075462;28;20220;-77
2020/12/18 06:18:04;;;;;;;3.67;1.50;;;12.20;99.90;;;;;;5075717;28;20194;-77
2020/12/18 06:20:35;;;;;;;2.10;1.95;;;12.10;99.90;;;;;;5075608;28;20198;-77
2020/12/18 06:23:03;;;;;;;3.95;2.20;;;12.20;99.90;;;;;;5075156;28;20191;-77
2020/12/18 06:25:30;;;;;;;4.95;3.25;;;12.10;99.90;;;;;;5075707;28;20284;-77
2020/12/18 06:27:58;;;;;;;4.57;2.60;;;12.10;99.90;;;;;;5075747;28;20194;-77
2020/12/18 06:30:25;;;;;;;3.08;2.08;;;12.10;99.90;;;;;;5075631;28;20268;-78
2020/12/18 06:32:51;;;;;;;2.38;1.70;;;12.10;99.90;;;;;;5075420;28;20541;-78
2020/12/18 06:35:32;;;;;;;6.63;2.35;;;12.10;99.90;;;;;;5075520;28;20194;-77
2020/12/18 06:38:18;;;;;;;2.22;1.88;;;12.10;99.90;;;;;;5075498;28;20323;-77
2020/12/18 06:40:45;;;;;;;2.95;1.55;;;12.00;99.90;;;;;;5075155;28;20255;-77
2020/12/18 06:43:12;;;;;;;3.90;1.65;;;12.00;99.90;;;;;;5075266;28;20202;-78
2020/12/18 06:45:39;;;;;;;8.75;2.15;;;12.00;99.90;;;;;;5075137;28;20233;-77
2020/12/18 06:48:26;;;;;;;6.60;2.00;;;11.90;99.90;;;;;;5075163;28;20191;-78
2020/12/18 06:50:53;;;;;;;5.72;2.25;;;11.90;99.90;;;;;;5075152;28;20210;-77
2020/12/18 06:53:19;;;;;;;3.60;2.10;;;12.00;99.90;;;;;;5075171;28;20520;-77
2020/12/18 06:55:45;;;;;;;2.40;1.75;;;12.00;99.90;;;;;;5075127;28;20190;-77
2020/12/18 06:58:15;;;;;;;2.30;1.80;;;12.00;99.90;;;;;;5075244;28;20532;-77
2020/12/18 07:00:46;;;;;;;4.45;2.45;;;11.90;99.90;;;;;;5074999;28;20194;-77
2020/12/18 07:03:41;;;;;;;5.50;1.80;;;11.80;99.90;;;;;;5074959;28;20198;-77
2020/12/18 07:06:09;;;;;;;2.85;1.52;;;11.70;99.90;;;;;;5074745;28;20226;-77
2020/12/18 07:08:37;;;;;;;3.63;1.85;;;11.80;99.90;;;;;;5074957;28;20194;-77
2020/12/18 07:11:06;;;;;;;6.35;3.60;;;11.80;99.90;;;;;;5074785;28;20198;-78
2020/12/18 07:13:34;;;;;;;3.38;2.00;;;11.70;99.90;;;;;;5074878;28;20633;-77
2020/12/18 07:16:06;;;;;;;5.10;2.50;;;11.70;99.90;;;;;;5074743;28;20223;-77
2020/12/18 07:18:34;;;;;;;3.38;2.25;;;11.80;99.90;;;;;;5074816;28;20198;-77
2020/12/18 07:21:02;;;;;;;2.47;1.83;;;11.80;99.90;;;;;;5074551;28;20202;-77
2020/12/18 07:23:30;;;;;;;6.65;2.25;;;11.90;99.90;;;;;;5074482;28;20199;-77
2020/12/18 07:25:58;;;;;;;3.88;1.70;;;12.00;99.90;;;;;;5074605;28;20233;-77
2020/12/18 07:28:25;;;;;;;4.40;1.65;;;12.00;99.90;;;;;;5074506;28;20661;-76
2020/12/18 07:30:55;;;;;;;4.10;2.15;;;11.90;99.90;;;;;;5074426;28;20227;-77
2020/12/18 07:33:22;;;;;;;1.67;1.42;;;11.90;99.90;;;;;;5073321;28;20212;-77
2020/12/18 07:35:50;;;;;;;5.78;1.80;;;12.00;99.90;;;;;;5074290;28;20190;-77
2020/12/18 07:38:19;;;;;;;2.35;1.92;;;12.00;99.90;;;;;;5074264;28;20217;-78
2020/12/18 07:40:48;;;;;;;3.50;1.65;;;12.00;99.90;;;;;;5073162;28;20195;-77
2020/12/18 07:43:16;;;;;;;4.15;2.03;;;11.90;99.90;;;;;;5074036;28;20277;-77
2020/12/18 07:45:44;;;;;;;2.63;2.22;;;11.90;99.90;;;;;;5073803;28;20226;-76
2020/12/18 07:48:19;;;;;;;3.38;1.92;;;11.90;99.90;;;;;;5074118;28;20285;-77
2020/12/18 07:50:59;;;;;;;6.85;1.95;;;12.00;99.90;;;;;;5073870;28;20204;-76
2020/12/18 07:53:27;;;;;;;2.70;1.55;;;11.90;99.90;;;;;;5073463;28;20702;-77
2020/12/18 07:56:07;;;;;;;4.78;1.90;;;12.00;99.90;;;;;;5072897;28;20198;-77
2020/12/18 07:58:43;;;;;;;8.57;1.92;;;11.70;99.90;;;;;;5072684;28;20194;-76
2020/12/18 08:01:10;;;;;;;6.38;1.92;;;11.70;99.90;;;;;;5073450;28;20201;-78
2020/12/18 08:03:45;;;;;;;5.13;1.90;;;11.70;99.90;;;;;;5073740;28;20251;-76
2020/12/18 08:06:30;;;;;;;3.15;1.92;;;11.80;99.90;;;;;;5073536;28;20696;-77
2020/12/18 08:08:57;;;;;;;6.45;1.95;;;11.90;99.90;;;;;;5073716;28;20198;-76
2020/12/18 08:11:26;;;;;;;4.13;1.85;;;11.90;99.90;;;;;;5073507;28;20215;-77
2020/12/18 08:13:53;;;;;;;2.35;1.92;;;11.90;99.90;;;;;;5073328;28;20197;-76
2020/12/18 08:16:21;;;;;;;3.70;1.58;;;11.90;99.90;;;;;;5073469;28;20201;-76
2020/12/18 08:18:53;;;;;;;4.50;1.95;;;12.00;99.90;;;;;;5073624;28;20198;-77
2020/12/18 08:21:22;;;;;;;3.25;1.55;;;12.00;99.90;;;;;;5073576;28;20203;-76
2020/12/18 08:23:59;;;;;;;3.40;2.20;;;12.20;99.90;;;;;;5073511;28;20198;-76
2020/12/18 08:26:27;;;;;;;2.25;1.90;;;12.20;99.90;;;;;;5073272;28;20230;-76
2020/12/18 08:28:53;;;;;;;3.60;1.92;;;12.20;99.90;;;;;;5073316;28;20198;-77
2020/12/18 08:31:20;;;;;;;7.47;3.65;;;12.20;99.90;;;;;;5073527;28;20200;-76
2020/12/18 08:33:51;;;;;;;9.27;1.75;;;12.30;99.90;;;;;;5073209;28;20288;-77
2020/12/18 08:36:18;;;;;;;3.88;1.80;;;12.30;99.90;;;;;;5073333;28;20229;-76
2020/12/18 08:39:03;;;;;;;2.45;1.90;;;12.30;99.90;;;;;;5073205;28;20217;-77
2020/12/18 08:41:44;;;;;;;4.70;1.95;;;12.20;99.90;;;;;;5073251;28;20191;-76
2020/12/18 08:44:12;;;;;;;7.97;2.13;;;12.20;99.90;;;;;;5072635;28;20218;-76
2020/12/18 08:46:39;;;;;;;3.70;2.03;;;12.30;99.90;;;;;;5073150;28;20222;-77
2020/12/18 08:49:17;;;;;;;3.45;2.20;;;12.30;99.90;;;;;;5073048;28;20252;-76
2020/12/18 08:51:45;;;;;;;6.20;2.00;;;12.30;99.90;;;;;;5073173;28;20205;-77
2020/12/18 08:54:25;;;;;;;3.22;1.48;;;12.30;99.90;;;;;;5072878;28;20194;-78
2020/12/18 08:57:14;;;;;;;7.55;1.80;;;12.30;99.90;;;;;;5073007;28;20562;-76
2020/12/18 08:59:55;;;;;;;4.30;1.40;;;12.30;99.90;;;;;;5072964;28;20198;-76
2020/12/18 09:02:22;;;;;;;5.95;2.00;;;12.20;99.90;;;;;;5072940;28;20198;-76
2020/12/18 09:05:11;;;;;;;2.63;1.95;;;12.40;99.90;;;;;;5072965;28;20241;-76
2020/12/18 09:07:41;;;;;;;8.40;1.75;;;12.40;99.90;;;;;;5072971;28;20202;-77
2020/12/18 09:10:08;;;;;;;3.38;1.60;;;12.40;99.90;;;;;;5073110;28;20201;-76
2020/12/18 09:12:42;;;;;;;4.50;2.25;;;12.40;99.90;;;;;;5072909;28;20201;-76
2020/12/18 09:15:23;;;;;;;5.15;1.80;;;12.40;99.90;;;;;;5072816;28;20225;-76
2020/12/18 09:18:00;;;;;;;3.75;1.73;;;12.40;99.90;;;;;;5072879;28;20251;-76
2020/12/18 09:20:29;;;;;;;2.13;1.60;;;12.50;99.90;;;;;;5072755;28;20190;-77
2020/12/18 09:22:57;;;;;;;6.72;2.10;;;12.50;99.90;;;;;;5072725;28;20198;-76
2020/12/18 09:25:24;;;;;;;4.10;2.25;;;12.60;99.90;;;;;;5072687;28;20275;-76
2020/12/18 09:27:54;;;;;;;4.57;2.15;;;12.70;99.90;;;;;;5072711;28;20194;-77
2020/12/18 09:30:22;;;;;;;7.07;2.40;;;12.60;99.90;;;;;;5072843;28;20205;-78
2020/12/18 09:33:17;;;;;;;2.20;1.48;;;12.60;99.90;;;;;;5072642;28;20198;-77
2020/12/18 09:35:45;;;;;;;2.83;1.60;;;12.70;99.90;;;;;;5072678;28;20228;-77
2020/12/18 09:38:12;;;;;;;2.55;2.00;;;12.70;99.90;;;;;;5072701;28;20194;-76
2020/12/18 09:40:38;;;;;;;6.57;2.10;;;12.80;99.90;;;;;;5072816;28;20547;-77
2020/12/18 09:43:05;;;;;;;2.00;1.80;;;12.80;99.90;;;;;;5072611;28;20195;-76
2020/12/18 09:45:31;;;;;;;4.10;2.15;;;12.80;99.90;;;;;;5072444;28;20230;-76
2020/12/18 09:47:58;;;;;;;3.63;1.88;;;12.70;99.90;;;;;;5072621;28;20201;-77
2020/12/18 09:50:24;;;;;;;3.40;1.75;;;12.60;99.90;;;;;;5072594;28;20198;-77
2020/12/18 09:52:51;;;;;;;2.47;2.03;;;12.80;99.90;;;;;;5072518;28;20198;-77
2020/12/18 09:55:18;;;;;;;4.93;1.73;;;12.90;99.90;;;;;;5072422;28;20201;-76
2020/12/18 09:57:44;;;;;;;6.43;2.30;;;12.90;99.90;;;;;;5074895;28;20275;-77
2020/12/18 10:00:10;;;;;;;4.00;1.67;;;13.10;99.90;;;;;;5076060;28;20198;-79
2020/12/18 10:02:37;;;;;;;4.22;2.10;;;13.10;99.90;;;;;;5076008;28;20650;-79
2020/12/18 10:05:04;;;;;;;7.05;2.40;;;13.10;99.90;;;;;;5075864;28;20275;-77
2020/12/18 10:07:30;;;;;;;5.18;2.00;;;13.20;99.90;;;;;;5076081;28;20274;-77
2020/12/18 10:09:57;;;;;;;3.13;1.75;;;13.20;99.90;;;;;;5075515;28;20220;-78
2020/12/18 10:12:23;;;;;;;2.20;1.73;;;13.20;99.90;;;;;;5075356;28;20194;-76
2020/12/18 10:14:50;;;;;;;2.63;1.60;;;13.20;99.90;;;;;;5075701;28;20214;-79
2020/12/18 10:17:16;;;;;;;7.15;1.85;;;13.20;99.90;;;;;;5075190;28;20660;-78
2020/12/18 10:19:42;;;;;;;2.67;1.42;;;13.30;99.90;;;;;;5075137;28;20201;-79
2020/12/18 10:22:09;;;;;;;2.40;1.58;;;13.30;99.90;;;;;;5075708;28;20194;-80
2020/12/18 10:24:35;;;;;;;4.80;2.28;;;13.20;99.90;;;;;;5075399;28;20618;-79
2020/12/18 10:27:02;;;;;;;1.98;1.45;;;13.20;99.90;;;;;;5075179;28;20201;-79
2020/12/18 10:29:28;;;;;;;3.25;1.60;;;13.20;99.90;;;;;;5075483;28;20268;-79
2020/12/18 10:31:56;;;;;;;5.78;2.30;;;13.20;99.90;;;;;;5075637;28;20198;-79
2020/12/18 10:34:22;;;;;;;2.85;1.60;;;13.20;99.90;;;;;;5075592;28;20606;-79
2020/12/18 10:36:50;;;;;;;5.45;1.80;;;13.20;99.90;;;;;;5075365;28;20221;-79
2020/12/18 10:39:17;;;;;;;4.15;1.65;;;13.10;99.90;;;;;;5075433;28;20201;-79
2020/12/18 10:41:43;;;;;;;3.22;1.45;;;13.20;99.90;;;;;;5075088;28;20201;-79
2020/12/18 10:44:11;;;;;;;4.25;1.80;;;13.20;99.90;;;;;;5075163;28;20210;-79
2020/12/18 10:46:38;;;;;;;4.95;1.80;;;13.30;99.90;;;;;;5075248;28;20275;-79
2020/12/18 10:49:04;;;;;;;2.28;1.42;;;13.30;99.90;;;;;;5075342;28;20533;-79
2020/12/18 10:51:30;;;;;;;5.50;3.47;;;13.30;99.90;;;;;;5075145;28;20259;-79
2020/12/18 10:53:57;;;;;;;4.78;1.50;;;13.30;99.90;;;;;;5075154;28;20202;-79
2020/12/18 10:56:23;;;;;;;2.53;1.80;;;13.40;99.90;;;;;;5074907;28;20226;-79
2020/12/18 10:58:49;;;;;;;2.95;1.83;;;13.50;99.90;;;;;;5075099;28;20557;-79
2020/12/18 11:01:20;;;;;;;3.63;1.58;;;13.60;99.90;;;;;;5075065;28;20190;-79
2020/12/18 11:03:46;;;;;;;4.28;1.10;;;13.60;99.90;;;;;;5074955;28;20233;-79
2020/12/18 11:06:12;;;;;;;1.25;1.10;;;13.50;99.90;;;;;;5074706;28;20248;-79
2020/12/18 11:08:39;;;;;;;1.42;1.20;;;13.60;99.90;;;;;;5074699;28;20205;-79
2020/12/18 11:11:05;;;;;;;2.65;1.40;;;13.70;99.90;;;;;;5074674;28;20195;-79
2020/12/18 11:13:31;;;;;;;2.88;1.58;;;13.90;99.90;;;;;;5074752;28;20201;-79
2020/12/18 11:15:58;;;;;;;2.72;1.55;;;14.00;99.90;;;;;;5074459;28;20247;-79
2020/12/18 11:18:25;;;;;;;2.38;1.40;;;14.10;99.90;;;;;;5074565;28;20203;-79
2020/12/18 11:20:51;;;;;;;1.70;1.20;;;14.20;99.90;;;;;;5074671;28;20256;-79
2020/12/18 11:23:17;;;;;;;2.20;1.10;;;14.40;99.90;;;;;;5074167;28;20194;-79
2020/12/18 11:25:43;;;;;;;2.30;1.65;;;14.40;99.90;;;;;;5074495;28;20229;-79
2020/12/18 11:28:10;;;;;;;2.33;1.30;;;14.60;99.90;;;;;;5074602;28;20247;-79
2020/12/18 11:30:36;;;;;;;1.50;1.20;;;14.60;99.90;;;;;;5074439;28;20198;-79
2020/12/18 11:33:02;;;;;;;1.92;1.40;;;14.70;99.90;;;;;;5074142;28;20195;-79
2020/12/18 11:35:29;;;;;;;2.20;1.10;;;14.80;99.90;;;;;;5073254;28;20541;-79
2020/12/18 11:37:56;;;;;;;3.35;1.40;;;14.90;99.90;;;;;;5081596;28;20550;-77
2020/12/18 11:40:22;;;;;;;1.92;1.50;;;14.80;99.90;;;;;;5088456;28;20193;-79
2020/12/18 11:42:49;;;;;;;1.85;1.38;;;14.90;99.90;;;;;;5094223;28;20198;-80
2020/12/18 11:45:15;;;;;;;1.75;1.45;;;14.90;99.90;;;;;;5094097;28;20240;-79
2020/12/18 11:47:41;;;;;;;4.53;1.40;;;15.00;99.90;;;;;;5093734;28;20199;-80
2020/12/18 11:50:07;;;;;;;2.42;1.38;;;15.00;99.90;;;;;;5092591;28;20193;-79
2020/12/18 11:52:34;;;;;;;3.60;1.38;;;15.00;99.90;;;;;;5094185;28;20284;-80
2020/12/18 11:55:01;;;;;;;4.43;1.25;;;14.90;99.90;;;;;;5094171;28;20601;-79
2020/12/18 11:57:27;;;;;;;1.85;1.50;;;15.00;99.90;;;;;;5094057;28;20224;-79
2020/12/18 11:59:53;;;;;;;2.95;1.20;;;15.00;99.90;;;;;;5093471;28;20530;-79
2020/12/18 12:02:19;;;;;;;1.55;1.40;;;15.10;99.90;;;;;;5091959;28;20268;-79
2020/12/18 12:04:46;;;;;;;6.28;1.27;;;15.10;99.90;;;;;;5093268;28;20197;-80
2020/12/18 12:07:12;;;;;;;2.30;1.65;;;15.10;99.90;;;;;;5093710;28;20197;-79
2020/12/18 12:09:39;;;;;;;1.70;1.52;;;15.20;99.90;;;;;;5092715;28;20201;-79
2020/12/18 12:12:11;;;;;;;3.15;1.42;;;15.20;99.90;;;;;;5093028;28;20201;-79
2020/12/18 12:14:37;;;;;;;2.35;1.08;;;15.10;99.90;;;;;;5093419;28;20312;-79
2020/12/18 12:17:04;;;;;;;4.65;1.40;;;15.00;99.90;;;;;;5093642;28;20197;-79
2020/12/18 12:19:30;;;;;;;1.85;1.00;;;14.90;99.90;;;;;;5093024;28;20777;-79
2020/12/18 12:21:57;;;;;;;1.45;1.10;;;14.90;99.90;;;;;;5093546;28;20196;-80
2020/12/18 12:24:24;;;;;;;2.40;1.60;;;14.90;99.90;;;;;;5093745;28;20190;-80
2020/12/18 12:26:51;;;;;;;2.95;1.58;;;15.00;99.90;;;;;;5093586;28;20286;-80
2020/12/18 12:29:18;;;;;;;3.15;1.42;;;15.10;99.90;;;;;;5093567;28;20197;-79
2020/12/18 12:31:44;;;;;;;3.13;1.63;;;15.20;99.90;;;;;;5093513;28;20201;-80
2020/12/18 12:34:11;;;;;;;2.60;1.35;;;15.20;99.90;;;;;;5093587;28;20579;-80
2020/12/18 12:36:37;;;;;;;2.22;1.35;;;15.30;99.90;;;;;;5093482;28;20197;-79
2020/12/18 12:39:03;;;;;;;4.97;1.10;;;15.30;99.90;;;;;;5093490;28;20194;-80
2020/12/18 12:41:30;;;;;;;2.17;1.15;;;15.20;99.90;;;;;;5093318;28;20206;-80
2020/12/18 12:43:57;;;;;;;1.58;1.20;;;15.30;99.90;;;;;;5093247;28;20214;-80
2020/12/18 12:46:25;;;;;;;3.38;2.10;;;15.20;99.90;;;;;;5093329;28;20271;-79
2020/12/18 12:48:52;;;;;;;3.05;1.50;;;15.30;99.90;;;;;;5093258;28;20200;-80
2020/12/18 12:51:18;;;;;;;5.25;1.20;;;15.20;99.90;;;;;;5093291;28;20209;-79